sensor_id;sensor_type;location;lat;lon;timestamp;pressure;altitude;pressure_sealevel;temperature;humidity
5996;BME280;3026;53.612;7.278;2023-03-23T00:01:46;99915.09;;;10.58;100.00
5996;BME280;3026;53.612;7.278;2023-03-23T00:04:16;99915.75;;;10.60;100.00
5996;BME280;3026;53.612;7.278;2023-03-23T00:06:44;99920.34;;;10.59;100.00
5996;BME280;3026;53.612;7.278;2023-03-23T00:09:11;99900.44;;;10.59;100.00
5996;BME280;3026;53.612;7.278;2023-03-23T00:11:41;99892.25;;;10.59;100.00
5996;BME280;3026;53.612;7.278;2023-03-23T00:14:09;99887.84;;;10.58;100.00
5996;BME280;3026;53.612;7.278;2023-03-23T00:16:39;99884.47;;;10.56;100.00
5996;BME280;3026;53.612;7.278;2023-03-23T00:19:10;99889.53;;;10.59;100.00
5996;BME280;3026;53.612;7.278;2023-03-23T00:21:42;99894.97;;;10.59;100.00
5996;BME280;3026;53.612;7.278;2023-03-23T00:24:17;99896.22;;;10.56;100.00
5996;BME280;3026;53.612;7.278;2023-03-23T00:26:55;99889.94;;;10.56;100.00
5996;BME280;3026;53.612;7.278;2023-03-23T00:29:24;99901.19;;;10.52;100.00
5996;BME280;3026;53.612;7.278;2023-03-23T00:31:53;99881.47;;;10.50;100.00
5996;BME280;3026;53.612;7.278;2023-03-23T00:34:22;99884.84;;;10.52;100.00
5996;BME280;3026;53.612;7.278;2023-03-23T00:36:53;99887.31;;;10.47;100.00
5996;BME280;3026;53.612;7.278;2023-03-23T00:39:22;99892.78;;;10.47;100.00
5996;BME280;3026;53.612;7.278;2023-03-23T00:41:50;99889.41;;;10.45;100.00
5996;BME280;3026;53.612;7.278;2023-03-23T00:44:17;99875.97;;;10.44;100.00
5996;BME280;3026;53.612;7.278;2023-03-23T00:46:45;99889.41;;;10.45;100.00
5996;BME280;3026;53.612;7.278;2023-03-23T00:49:15;99873.06;;;10.45;100.00
5996;BME280;3026;53.612;7.278;2023-03-23T00:51:42;99902.00;;;10.46;100.00
5996;BME280;3026;53.612;7.278;2023-03-23T00:54:13;99897.19;;;10.48;100.00
5996;BME280;3026;53.612;7.278;2023-03-23T00:56:40;99879.16;;;10.47;100.00
5996;BME280;3026;53.612;7.278;2023-03-23T00:59:07;99881.88;;;10.47;100.00
5996;BME280;3026;53.612;7.278;2023-03-23T01:01:34;99877.28;;;10.48;100.00
5996;BME280;3026;53.612;7.278;2023-03-23T01:04:01;99895.31;;;10.49;100.00
5996;BME280;3026;53.612;7.278;2023-03-23T01:06:30;99877.47;;;10.46;100.00
5996;BME280;3026;53.612;7.278;2023-03-23T01:08:57;99868.88;;;10.49;100.00
5996;BME280;3026;53.612;7.278;2023-03-23T01:11:27;99869.72;;;10.50;100.00
5996;BME280;3026;53.612;7.278;2023-03-23T01:13:54;99866.56;;;10.46;100.00
5996;BME280;3026;53.612;7.278;2023-03-23T01:16:22;99860.47;;;10.44;100.00
5996;BME280;3026;53.612;7.278;2023-03-23T01:18:48;99861.75;;;10.48;100.00
5996;BME280;3026;53.612;7.278;2023-03-23T01:21:17;99864.69;;;10.47;100.00
5996;BME280;3026;53.612;7.278;2023-03-23T01:23:45;99851.25;;;10.45;100.00
5996;BME280;3026;53.612;7.278;2023-03-23T01:26:13;99847.50;;;10.46;100.00
5996;BME280;3026;53.612;7.278;2023-03-23T01:28:43;99841.19;;;10.46;100.00
5996;BME280;3026;53.612;7.278;2023-03-23T01:31:11;99841.00;;;10.47;100.00
5996;BME280;3026;53.612;7.278;2023-03-23T01:33:39;99846.69;;;10.52;100.00
5996;BME280;3026;53.612;7.278;2023-03-23T01:36:09;99833.06;;;10.52;100.00
5996;BME280;3026;53.612;7.278;2023-03-23T01:38:36;99830.34;;;10.52;100.00
5996;BME280;3026;53.612;7.278;2023-03-23T01:41:06;99822.84;;;10.55;100.00
5996;BME280;3026;53.612;7.278;2023-03-23T01:43:33;99821.59;;;10.57;100.00
5996;BME280;3026;53.612;7.278;2023-03-23T01:46:01;99823.91;;;10.60;100.00
5996;BME280;3026;53.612;7.278;2023-03-23T01:48:31;99803.97;;;10.60;100.00
5996;BME280;3026;53.612;7.278;2023-03-23T01:51:06;99796.84;;;10.59;100.00
5996;BME280;3026;53.612;7.278;2023-03-23T01:53:37;99803.59;;;10.63;100.00
5996;BME280;3026;53.612;7.278;2023-03-23T01:56:06;99796.44;;;10.62;100.00
5996;BME280;3026;53.612;7.278;2023-03-23T01:58:37;99787.63;;;10.60;100.00
5996;BME280;3026;53.612;7.278;2023-03-23T02:01:09;99797.94;;;10.64;100.00
5996;BME280;3026;53.612;7.278;2023-03-23T02:03:39;99787.22;;;10.63;100.00
5996;BME280;3026;53.612;7.278;2023-03-23T02:06:10;99784.13;;;10.66;100.00
5996;BME280;3026;53.612;7.278;2023-03-23T02:08:38;99773.22;;;10.66;100.00
5996;BME280;3026;53.612;7.278;2023-03-23T02:11:13;99781.00;;;10.69;100.00
5996;BME280;3026;53.612;7.278;2023-03-23T02:13:40;99782.03;;;10.68;100.00
5996;BME280;3026;53.612;7.278;2023-03-23T02:16:15;99778.91;;;10.71;100.00
5996;BME280;3026;53.612;7.278;2023-03-23T02:18:53;99776.59;;;10.68;100.00
5996;BME280;3026;53.612;7.278;2023-03-23T02:21:46;99784.34;;;10.71;100.00
5996;BME280;3026;53.612;7.278;2023-03-23T02:24:32;99790.00;;;10.69;100.00
5996;BME280;3026;53.612;7.278;2023-03-23T02:27:08;99777.63;;;10.67;100.00
5996;BME280;3026;53.612;7.278;2023-03-23T02:30:09;99776.31;;;10.63;100.00
5996;BME280;3026;53.612;7.278;2023-03-23T02:35:30;99747.78;;;10.59;100.00
5996;BME280;3026;53.612;7.278;2023-03-23T02:38:01;99764.97;;;10.59;100.00
5996;BME280;3026;53.612;7.278;2023-03-23T02:40:35;99746.50;;;10.55;100.00
5996;BME280;3026;53.612;7.278;2023-03-23T02:43:07;99744.44;;;10.57;100.00
5996;BME280;3026;53.612;7.278;2023-03-23T02:45:37;99749.25;;;10.55;100.00
5996;BME280;3026;53.612;7.278;2023-03-23T02:48:06;99740.66;;;10.58;100.00
5996;BME280;3026;53.612;7.278;2023-03-23T02:50:37;99743.78;;;10.55;100.00
5996;BME280;3026;53.612;7.278;2023-03-23T02:53:09;99747.16;;;10.57;100.00
5996;BME280;3026;53.612;7.278;2023-03-23T02:55:39;99741.06;;;10.55;100.00
5996;BME280;3026;53.612;7.278;2023-03-23T02:58:07;99731.84;;;10.56;100.00
5996;BME280;3026;53.612;7.278;2023-03-23T03:00:35;99720.94;;;10.56;100.00
5996;BME280;3026;53.612;7.278;2023-03-23T03:03:03;99710.03;;;10.56;100.00
5996;BME280;3026;53.612;7.278;2023-03-23T03:05:38;99726.81;;;10.59;100.00
5996;BME280;3026;53.612;7.278;2023-03-23T03:08:13;99707.09;;;10.57;100.00
5996;BME280;3026;53.612;7.278;2023-03-23T03:10:49;99701.69;;;10.64;100.00
5996;BME280;3026;53.612;7.278;2023-03-23T03:13:29;99711.59;;;10.71;100.00
5996;BME280;3026;53.612;7.278;2023-03-23T03:16:04;99709.28;;;10.75;100.00
5996;BME280;3026;53.612;7.278;2023-03-23T03:18:37;99704.31;;;10.78;100.00
5996;BME280;3026;53.612;7.278;2023-03-23T03:21:09;99697.59;;;10.81;100.00
5996;BME280;3026;53.612;7.278;2023-03-23T03:23:41;99690.88;;;10.84;100.00
5996;BME280;3026;53.612;7.278;2023-03-23T03:26:10;99695.97;;;10.93;100.00
5996;BME280;3026;53.612;7.278;2023-03-23T03:28:38;99693.25;;;10.93;100.00
5996;BME280;3026;53.612;7.278;2023-03-23T03:31:08;99691.78;;;10.97;100.00
5996;BME280;3026;53.612;7.278;2023-03-23T03:33:38;99687.63;;;11.01;100.00
5996;BME280;3026;53.612;7.278;2023-03-23T03:36:07;99693.09;;;11.01;100.00
5996;BME280;3026;53.612;7.278;2023-03-23T03:38:42;99692.25;;;11.07;100.00
5996;BME280;3026;53.612;7.278;2023-03-23T03:41:09;99677.97;;;11.05;100.00
5996;BME280;3026;53.612;7.278;2023-03-23T03:43:36;99690.16;;;11.09;100.00
5996;BME280;3026;53.612;7.278;2023-03-23T03:46:06;99683.88;;;11.09;100.00
5996;BME280;3026;53.612;7.278;2023-03-23T03:48:34;99684.69;;;11.09;100.00
5996;BME280;3026;53.612;7.278;2023-03-23T03:51:01;99687.03;;;11.13;100.00
5996;BME280;3026;53.612;7.278;2023-03-23T03:53:29;99689.78;;;11.13;100.00
5996;BME280;3026;53.612;7.278;2023-03-23T03:55:56;99688.09;;;11.12;100.00
5996;BME280;3026;53.612;7.278;2023-03-23T03:58:29;99687.69;;;11.15;100.00
5996;BME280;3026;53.612;7.278;2023-03-23T04:00:58;99691.84;;;11.10;100.00
5996;BME280;3026;53.612;7.278;2023-03-23T04:03:27;99682.63;;;11.12;100.00
5996;BME280;3026;53.612;7.278;2023-03-23T04:05:55;99678.88;;;11.13;100.00
5996;BME280;3026;53.612;7.278;2023-03-23T04:08:22;99687.25;;;11.18;100.00
5996;BME280;3026;53.612;7.278;2023-03-23T04:10:58;99688.94;;;11.12;100.00
5996;BME280;3026;53.612;7.278;2023-03-23T04:13:25;99684.31;;;11.13;100.00
5996;BME280;3026;53.612;7.278;2023-03-23T04:15:52;99681.38;;;11.14;100.00
5996;BME280;3026;53.612;7.278;2023-03-23T04:18:19;99682.22;;;11.15;100.00
5996;BME280;3026;53.612;7.278;2023-03-23T04:20:48;99680.13;;;11.17;100.00
5996;BME280;3026;53.612;7.278;2023-03-23T04:23:25;99692.09;;;11.16;100.00
5996;BME280;3026;53.612;7.278;2023-03-23T04:25:57;99705.31;;;11.19;100.00
5996;BME280;3026;53.612;7.278;2023-03-23T04:28:24;99712.03;;;11.23;100.00
5996;BME280;3026;53.612;7.278;2023-03-23T04:30:56;99707.63;;;11.22;100.00
5996;BME280;3026;53.612;7.278;2023-03-23T04:33:29;99705.31;;;11.19;100.00
5996;BME280;3026;53.612;7.278;2023-03-23T04:36:03;99701.94;;;11.17;100.00
5996;BME280;3026;53.612;7.278;2023-03-23T04:38:38;99703.22;;;11.14;100.00
5996;BME280;3026;53.612;7.278;2023-03-23T04:48:15;99707.38;;;11.10;100.00
5996;BME280;3026;53.612;7.278;2023-03-23T04:50:43;99708.19;;;11.10;100.00
5996;BME280;3026;53.612;7.278;2023-03-23T04:53:09;99692.25;;;11.07;100.00
5996;BME280;3026;53.612;7.278;2023-03-23T04:55:37;99693.72;;;11.03;100.00
5996;BME280;3026;53.612;7.278;2023-03-23T04:58:04;99690.56;;;11.06;100.00
5996;BME280;3026;53.612;7.278;2023-03-23T05:00:32;99698.53;;;11.01;100.00
5996;BME280;3026;53.612;7.278;2023-03-23T05:03:03;99708.16;;;10.97;100.00
5996;BME280;3026;53.612;7.278;2023-03-23T05:05:33;99719.06;;;10.97;100.00
5996;BME280;3026;53.612;7.278;2023-03-23T05:08:01;99707.09;;;10.92;100.00
5996;BME280;3026;53.612;7.278;2023-03-23T05:10:28;99698.44;;;10.88;100.00
5996;BME280;3026;53.612;7.278;2023-03-23T05:12:55;99683.53;;;10.84;100.00
5996;BME280;3026;53.612;7.278;2023-03-23T05:15:22;99695.50;;;10.83;100.00
5996;BME280;3026;53.612;7.278;2023-03-23T05:17:52;99683.72;;;10.76;100.00
5996;BME280;3026;53.612;7.278;2023-03-23T05:20:22;99698.00;;;10.78;100.00
5996;BME280;3026;53.612;7.278;2023-03-23T05:22:50;99692.09;;;10.74;100.00
5996;BME280;3026;53.612;7.278;2023-03-23T05:25:18;99691.88;;;10.76;100.00
5996;BME280;3026;53.612;7.278;2023-03-23T05:27:46;99690.41;;;10.73;100.00
5996;BME280;3026;53.612;7.278;2023-03-23T05:30:18;99687.47;;;10.75;100.00
5996;BME280;3026;53.612;7.278;2023-03-23T05:32:46;99698.81;;;10.72;100.00
5996;BME280;3026;53.612;7.278;2023-03-23T05:35:16;99703.00;;;10.74;100.00
5996;BME280;3026;53.612;7.278;2023-03-23T05:37:45;99709.69;;;10.72;100.00
5996;BME280;3026;53.612;7.278;2023-03-23T05:41:01;99717.25;;;10.70;100.00
5996;BME280;3026;53.612;7.278;2023-03-23T05:43:28;99688.25;;;10.62;100.00
5996;BME280;3026;53.612;7.278;2023-03-23T05:45:55;99710.13;;;10.69;100.00
5996;BME280;3026;53.612;7.278;2023-03-23T05:48:22;99703.19;;;10.66;100.00
5996;BME280;3026;53.612;7.278;2023-03-23T05:50:52;99705.06;;;10.66;100.00
5996;BME280;3026;53.612;7.278;2023-03-23T05:53:24;99710.53;;;10.66;100.00
5996;BME280;3026;53.612;7.278;2023-03-23T05:55:52;99724.53;;;10.63;100.00
5996;BME280;3026;53.612;7.278;2023-03-23T05:58:20;99722.25;;;10.66;100.00
5996;BME280;3026;53.612;7.278;2023-03-23T06:00:50;99712.59;;;10.64;100.00
5996;BME280;3026;53.612;7.278;2023-03-23T06:06:36;99708.81;;;10.65;100.00
5996;BME280;3026;53.612;7.278;2023-03-23T06:09:05;99715.56;;;10.69;100.00
5996;BME280;3026;53.612;7.278;2023-03-23T06:11:32;99713.41;;;10.64;100.00
5996;BME280;3026;53.612;7.278;2023-03-23T06:14:00;99729.00;;;10.70;100.00
5996;BME280;3026;53.612;7.278;2023-03-23T06:16:27;99725.84;;;10.67;100.00
5996;BME280;3026;53.612;7.278;2023-03-23T06:18:57;99721.44;;;10.66;100.00
5996;BME280;3026;53.612;7.278;2023-03-23T06:21:26;99731.28;;;10.67;100.00
5996;BME280;3026;53.612;7.278;2023-03-23T06:23:56;99739.06;;;10.70;100.00
5996;BME280;3026;53.612;7.278;2023-03-23T06:26:32;99748.28;;;10.69;100.00
5996;BME280;3026;53.612;7.278;2023-03-23T06:29:00;99739.47;;;10.67;100.00
5996;BME280;3026;53.612;7.278;2023-03-23T06:31:29;99742.00;;;10.68;100.00
5996;BME280;3026;53.612;7.278;2023-03-23T06:33:56;99758.34;;;10.68;100.00
5996;BME280;3026;53.612;7.278;2023-03-23T06:36:25;99758.13;;;10.70;100.00
5996;BME280;3026;53.612;7.278;2023-03-23T06:38:56;99757.09;;;10.71;100.00
5996;BME280;3026;53.612;7.278;2023-03-23T06:41:26;99767.38;;;10.69;100.00
5996;BME280;3026;53.612;7.278;2023-03-23T06:43:55;99753.72;;;10.69;100.00
5996;BME280;3026;53.612;7.278;2023-03-23T06:46:25;99761.28;;;10.67;100.00
5996;BME280;3026;53.612;7.278;2023-03-23T06:48:55;99763.34;;;10.65;100.00
5996;BME280;3026;53.612;7.278;2023-03-23T06:51:22;99767.09;;;10.64;100.00
5996;BME280;3026;53.612;7.278;2023-03-23T06:53:52;99775.47;;;10.62;100.00
5996;BME280;3026;53.612;7.278;2023-03-23T06:56:31;99777.78;;;10.59;100.00
5996;BME280;3026;53.612;7.278;2023-03-23T06:59:09;99791.84;;;10.62;100.00
5996;BME280;3026;53.612;7.278;2023-03-23T07:01:45;99791.81;;;10.56;100.00
5996;BME280;3026;53.612;7.278;2023-03-23T07:04:40;99790.97;;;10.55;100.00
5996;BME280;3026;53.612;7.278;2023-03-23T07:07:12;99795.56;;;10.55;100.00
5996;BME280;3026;53.612;7.278;2023-03-23T07:09:46;99801.03;;;10.55;100.00
5996;BME280;3026;53.612;7.278;2023-03-23T07:12:24;99803.91;;;10.53;100.00
5996;BME280;3026;53.612;7.278;2023-03-23T07:14:54;99810.25;;;10.54;100.00
5996;BME280;3026;53.612;7.278;2023-03-23T07:17:21;99813.63;;;10.56;100.00
5996;BME280;3026;53.612;7.278;2023-03-23T07:19:54;99813.63;;;10.56;100.00
5996;BME280;3026;53.612;7.278;2023-03-23T07:22:21;99815.28;;;10.57;100.00
5996;BME280;3026;53.612;7.278;2023-03-23T07:24:59;99816.53;;;10.54;100.00
5996;BME280;3026;53.612;7.278;2023-03-23T07:27:32;99840.03;;;10.55;100.00
5996;BME280;3026;53.612;7.278;2023-03-23T07:30:02;99847.16;;;10.56;100.00
5996;BME280;3026;53.612;7.278;2023-03-23T07:32:29;99849.81;;;10.49;100.00
5996;BME280;3026;53.612;7.278;2023-03-23T07:34:56;99857.22;;;10.56;100.00
5996;BME280;3026;53.612;7.278;2023-03-23T07:37:26;99855.53;;;10.55;100.00
5996;BME280;3026;53.612;7.278;2023-03-23T07:39:56;99857.66;;;10.59;100.00
5996;BME280;3026;53.612;7.278;2023-03-23T07:42:25;99855.13;;;10.58;100.00
5996;BME280;3026;53.612;7.278;2023-03-23T07:44:52;99874.44;;;10.63;100.00
5996;BME280;3026;53.612;7.278;2023-03-23T07:47:21;99876.97;;;10.64;100.00
5996;BME280;3026;53.612;7.278;2023-03-23T07:49:49;99873.63;;;10.62;100.00
5996;BME280;3026;53.612;7.278;2023-03-23T07:52:21;99875.09;;;10.65;100.00
5996;BME280;3026;53.612;7.278;2023-03-23T08:01:18;99889.84;;;10.70;100.00
5996;BME280;3026;53.612;7.278;2023-03-23T08:03:47;99883.53;;;10.70;100.00
5996;BME280;3026;53.612;7.278;2023-03-23T08:06:17;99887.19;;;10.77;100.00
5996;BME280;3026;53.612;7.278;2023-03-23T08:08:49;99886.38;;;10.83;100.00
5996;BME280;3026;53.612;7.278;2023-03-23T08:11:16;99895.69;;;10.95;100.00
5996;BME280;3026;53.612;7.278;2023-03-23T08:13:45;99895.69;;;10.95;100.00
5996;BME280;3026;53.612;7.278;2023-03-23T08:16:13;99895.31;;;10.98;100.00
5996;BME280;3026;53.612;7.278;2023-03-23T08:18:59;99897.66;;;11.01;100.00
5996;BME280;3026;53.612;7.278;2023-03-23T08:21:38;99908.03;;;11.13;100.00
5996;BME280;3026;53.612;7.278;2023-03-23T08:24:13;99891.66;;;11.13;100.00
5996;BME280;3026;53.612;7.278;2023-03-23T08:26:47;99899.16;;;11.10;100.00
5996;BME280;3026;53.612;7.278;2023-03-23T08:29:22;99900.47;;;11.15;100.00
5996;BME280;3026;53.612;7.278;2023-03-23T08:31:53;99900.91;;;11.18;100.00
5996;BME280;3026;53.612;7.278;2023-03-23T08:34:49;99902.16;;;11.16;100.00
5996;BME280;3026;53.612;7.278;2023-03-23T08:37:17;99921.69;;;11.19;100.00
5996;BME280;3026;53.612;7.278;2023-03-23T08:39:44;99920.44;;;11.22;100.00
5996;BME280;3026;53.612;7.278;2023-03-23T08:42:12;99923.66;;;11.32;100.00
5996;BME280;3026;53.612;7.278;2023-03-23T08:44:39;99931.28;;;11.36;100.00
5996;BME280;3026;53.612;7.278;2023-03-23T08:47:06;99935.28;;;11.40;100.00
5996;BME280;3026;53.612;7.278;2023-03-23T08:49:33;99932.59;;;11.47;100.00
5996;BME280;3026;53.612;7.278;2023-03-23T08:52:02;99934.38;;;11.61;100.00
5996;BME280;3026;53.612;7.278;2023-03-23T08:54:29;99929.75;;;11.68;100.00
5996;BME280;3026;53.612;7.278;2023-03-23T08:56:59;99928.97;;;11.75;100.00
5996;BME280;3026;53.612;7.278;2023-03-23T08:59:27;99935.97;;;11.84;100.00
5996;BME280;3026;53.612;7.278;2023-03-23T09:01:54;99935.41;;;11.95;100.00
5996;BME280;3026;53.612;7.278;2023-03-23T09:04:21;99939.66;;;12.04;100.00
5996;BME280;3026;53.612;7.278;2023-03-23T09:06:48;99932.94;;;12.13;100.00
5996;BME280;3026;53.612;7.278;2023-03-23T09:09:16;99929.84;;;12.30;100.00
5996;BME280;3026;53.612;7.278;2023-03-23T09:11:43;99927.97;;;12.37;100.00
5996;BME280;3026;53.612;7.278;2023-03-23T09:14:11;99921.22;;;12.33;100.00
5996;BME280;3026;53.612;7.278;2023-03-23T09:16:38;99936.78;;;12.32;100.00
5996;BME280;3026;53.612;7.278;2023-03-23T09:19:05;99939.75;;;12.31;100.00
5996;BME280;3026;53.612;7.278;2023-03-23T09:21:34;99935.91;;;12.25;100.00
5996;BME280;3026;53.612;7.278;2023-03-23T09:24:01;99938.44;;;12.26;100.00
5996;BME280;3026;53.612;7.278;2023-03-23T09:26:30;99932.16;;;12.33;100.00
5996;BME280;3026;53.612;7.278;2023-03-23T09:28:57;99947.78;;;12.59;100.00
5996;BME280;3026;53.612;7.278;2023-03-23T09:31:24;99946.97;;;12.71;100.00
5996;BME280;3026;53.612;7.278;2023-03-23T09:33:53;99943.81;;;12.68;100.00
5996;BME280;3026;53.612;7.278;2023-03-23T09:36:22;99934.16;;;12.78;100.00
5996;BME280;3026;53.612;7.278;2023-03-23T09:38:51;99946.16;;;12.91;100.00
5996;BME280;3026;53.612;7.278;2023-03-23T09:41:35;99954.97;;;12.79;100.00
5996;BME280;3026;53.612;7.278;2023-03-23T09:44:07;99955.16;;;12.71;100.00
5996;BME280;3026;53.612;7.278;2023-03-23T09:46:53;99953.72;;;12.82;100.00
5996;BME280;3026;53.612;7.278;2023-03-23T09:49:26;99966.78;;;13.00;100.00
5996;BME280;3026;53.612;7.278;2023-03-23T09:52:02;99979.84;;;13.11;100.00
5996;BME280;3026;53.612;7.278;2023-03-23T09:54:35;99977.78;;;13.26;100.00
5996;BME280;3026;53.612;7.278;2023-03-23T09:57:11;99981.13;;;13.28;100.00
5996;BME280;3026;53.612;7.278;2023-03-23T09:59:43;99982.38;;;13.12;100.00
5996;BME280;3026;53.612;7.278;2023-03-23T10:02:17;99992.06;;;13.08;100.00
5996;BME280;3026;53.612;7.278;2023-03-23T10:04:46;99989.09;;;12.97;100.00
5996;BME280;3026;53.612;7.278;2023-03-23T10:07:15;99991.16;;;12.81;100.00
5996;BME280;3026;53.612;7.278;2023-03-23T10:09:44;99991.19;;;12.75;100.00
5996;BME280;3026;53.612;7.278;2023-03-23T10:12:24;99998.91;;;12.58;100.00
5996;BME280;3026;53.612;7.278;2023-03-23T10:15:02;99992.38;;;12.59;100.00
5996;BME280;3026;53.612;7.278;2023-03-23T10:17:35;99992.03;;;12.75;100.00
5996;BME280;3026;53.612;7.278;2023-03-23T10:20:21;99986.38;;;12.97;100.00
5996;BME280;3026;53.612;7.278;2023-03-23T10:22:53;99995.84;;;13.14;100.00
5996;BME280;3026;53.612;7.278;2023-03-23T10:25:24;99992.06;;;13.28;100.00
5996;BME280;3026;53.612;7.278;2023-03-23T10:28:01;99979.22;;;13.49;100.00
5996;BME280;3026;53.612;7.278;2023-03-23T10:30:33;99984.06;;;13.53;100.00
5996;BME280;3026;53.612;7.278;2023-03-23T10:33:08;99991.66;;;13.45;100.00
5996;BME280;3026;53.612;7.278;2023-03-23T10:35:38;99989.13;;;13.50;100.00
5996;BME280;3026;53.612;7.278;2023-03-23T10:38:12;99994.16;;;13.66;100.00
5996;BME280;3026;53.612;7.278;2023-03-23T10:40:48;99992.47;;;13.78;100.00
5996;BME280;3026;53.612;7.278;2023-03-23T10:43:17;100007.59;;;13.94;100.00
5996;BME280;3026;53.612;7.278;2023-03-23T10:45:49;99993.19;;;14.12;100.00
5996;BME280;3026;53.612;7.278;2023-03-23T10:48:23;99996.09;;;14.30;100.00
5996;BME280;3026;53.612;7.278;2023-03-23T10:51:03;100007.88;;;14.37;100.00
5996;BME280;3026;53.612;7.278;2023-03-23T10:53:36;100009.97;;;14.48;100.00
5996;BME280;3026;53.612;7.278;2023-03-23T10:56:05;100017.06;;;14.63;100.00
5996;BME280;3026;53.612;7.278;2023-03-23T10:58:48;100011.38;;;14.57;100.00
5996;BME280;3026;53.612;7.278;2023-03-23T11:01:18;100020.78;;;14.75;100.00
5996;BME280;3026;53.612;7.278;2023-03-23T11:03:48;100017.72;;;14.96;100.00
5996;BME280;3026;53.612;7.278;2023-03-23T11:06:22;100037.63;;;14.85;100.00
5996;BME280;3026;53.612;7.278;2023-03-23T11:08:52;100031.69;;;14.88;100.00
5996;BME280;3026;53.612;7.278;2023-03-23T11:11:25;100026.19;;;14.88;100.00
5996;BME280;3026;53.612;7.278;2023-03-23T11:13:59;100016.81;;;15.02;100.00
5996;BME280;3026;53.612;7.278;2023-03-23T11:16:28;100027.69;;;15.15;100.00
5996;BME280;3026;53.612;7.278;2023-03-23T11:18:57;100030.19;;;15.24;100.00
5996;BME280;3026;53.612;7.278;2023-03-23T11:21:25;100034.34;;;15.33;100.00
5996;BME280;3026;53.612;7.278;2023-03-23T11:23:54;100041.25;;;15.10;100.00
5996;BME280;3026;53.612;7.278;2023-03-23T11:26:25;100042.78;;;15.06;100.00
5996;BME280;3026;53.612;7.278;2023-03-23T11:28:58;100041.44;;;15.15;100.00
5996;BME280;3026;53.612;7.278;2023-03-23T11:31:30;100048.19;;;15.20;100.00
5996;BME280;3026;53.612;7.278;2023-03-23T11:34:00;100047.13;;;15.21;100.00
5996;BME280;3026;53.612;7.278;2023-03-23T11:36:31;100048.22;;;15.38;100.00
5996;BME280;3026;53.612;7.278;2023-03-23T11:38:59;100044.25;;;15.34;100.00
5996;BME280;3026;53.612;7.278;2023-03-23T11:41:33;100048.53;;;15.30;100.00
5996;BME280;3026;53.612;7.278;2023-03-23T11:44:09;100050.63;;;15.28;100.00
5996;BME280;3026;53.612;7.278;2023-03-23T11:46:45;100050.97;;;15.38;100.00
5996;BME280;3026;53.612;7.278;2023-03-23T11:49:22;100040.94;;;15.50;100.00
5996;BME280;3026;53.612;7.278;2023-03-23T11:51:54;100051.88;;;15.63;100.00
5996;BME280;3026;53.612;7.278;2023-03-23T11:54:29;100058.94;;;15.78;100.00
5996;BME280;3026;53.612;7.278;2023-03-23T11:56:57;100052.84;;;15.94;100.00
5996;BME280;3026;53.612;7.278;2023-03-23T11:59:29;100051.78;;;15.95;100.00
5996;BME280;3026;53.612;7.278;2023-03-23T12:02:24;100062.75;;;15.77;100.00
5996;BME280;3026;53.612;7.278;2023-03-23T12:05:11;100057.81;;;15.60;100.00
5996;BME280;3026;53.612;7.278;2023-03-23T12:07:50;100056.56;;;15.56;100.00
5996;BME280;3026;53.612;7.278;2023-03-23T12:10:26;100058.50;;;15.49;100.00
5996;BME280;3026;53.612;7.278;2023-03-23T12:13:09;100051.66;;;15.33;100.00
5996;BME280;3026;53.612;7.278;2023-03-23T12:15:54;100060.03;;;15.13;100.00
5996;BME280;3026;53.612;7.278;2023-03-23T12:18:37;100078.94;;;14.97;100.00
5996;BME280;3026;53.612;7.278;2023-03-23T12:21:23;100080.72;;;14.78;100.00
5996;BME280;3026;53.612;7.278;2023-03-23T12:23:59;100076.97;;;14.72;100.00
5996;BME280;3026;53.612;7.278;2023-03-23T12:26:30;100075.59;;;14.88;100.00
5996;BME280;3026;53.612;7.278;2023-03-23T12:29:16;100073.59;;;15.08;100.00
5996;BME280;3026;53.612;7.278;2023-03-23T12:31:59;100065.63;;;15.32;100.00
5996;BME280;3026;53.612;7.278;2023-03-23T12:34:38;100070.06;;;15.64;100.00
5996;BME280;3026;53.612;7.278;2023-03-23T12:37:17;100068.53;;;15.68;100.00
5996;BME280;3026;53.612;7.278;2023-03-23T12:40:01;100065.88;;;15.55;100.00
5996;BME280;3026;53.612;7.278;2023-03-23T12:42:36;100077.56;;;15.44;100.00
5996;BME280;3026;53.612;7.278;2023-03-23T12:45:18;100067.53;;;15.56;100.00
5996;BME280;3026;53.612;7.278;2023-03-23T12:47:54;100069.22;;;15.64;100.00
5996;BME280;3026;53.612;7.278;2023-03-23T12:50:28;100074.94;;;15.56;100.00
5996;BME280;3026;53.612;7.278;2023-03-23T12:53:02;100074.50;;;15.59;100.00
5996;BME280;3026;53.612;7.278;2023-03-23T12:55:36;100068.06;;;15.71;100.00
5996;BME280;3026;53.612;7.278;2023-03-23T12:58:09;100075.44;;;15.78;100.00
5996;BME280;3026;53.612;7.278;2023-03-23T13:00:52;100072.38;;;15.86;100.00
5996;BME280;3026;53.612;7.278;2023-03-23T13:03:26;100073.03;;;16.06;100.00
5996;BME280;3026;53.612;7.278;2023-03-23T13:06:10;100068.16;;;16.26;100.00
5996;BME280;3026;53.612;7.278;2023-03-23T13:08:43;100067.16;;;16.39;100.00
5996;BME280;3026;53.612;7.278;2023-03-23T13:11:16;100068.25;;;16.56;100.00
5996;BME280;3026;53.612;7.278;2023-03-23T13:13:48;100066.00;;;16.65;100.00
5996;BME280;3026;53.612;7.278;2023-03-23T13:16:26;100068.34;;;16.68;100.00
5996;BME280;3026;53.612;7.278;2023-03-23T13:19:06;100079.78;;;16.83;100.00
5996;BME280;3026;53.612;7.278;2023-03-23T13:21:40;100070.75;;;16.76;100.00
5996;BME280;3026;53.612;7.278;2023-03-23T13:24:11;100071.09;;;16.68;100.00
5996;BME280;3026;53.612;7.278;2023-03-23T13:26:41;100070.16;;;16.74;100.00
5996;BME280;3026;53.612;7.278;2023-03-23T13:29:13;100068.94;;;16.70;100.00
5996;BME280;3026;53.612;7.278;2023-03-23T13:31:41;100067.69;;;16.66;100.00
5996;BME280;3026;53.612;7.278;2023-03-23T13:34:25;100066.47;;;16.62;100.00
5996;BME280;3026;53.612;7.278;2023-03-23T13:36:54;100068.69;;;16.53;100.00
5996;BME280;3026;53.612;7.278;2023-03-23T13:39:25;100053.50;;;16.51;100.00
5996;BME280;3026;53.612;7.278;2023-03-23T13:42:03;100061.53;;;16.34;100.00
5996;BME280;3026;53.612;7.278;2023-03-23T13:44:44;100064.03;;;16.17;100.00
5996;BME280;3026;53.612;7.278;2023-03-23T13:47:27;100073.66;;;16.26;100.00
5996;BME280;3026;53.612;7.278;2023-03-23T13:50:00;100076.38;;;16.08;100.00
5996;BME280;3026;53.612;7.278;2023-03-23T13:52:38;100066.97;;;15.79;100.00